バレー の空港の天気 - METARとTAF

アンギラ・ウォールブレイク空港 ( TQPF / AXA ) - アンギラ バレー
飛行場実況気象(Metar)
観測時間08/04 16:00 AST (08/04 20:00 UTC)
風向・風速東 6m/s
視程10km以上
天気現象
少しの雲 雲底高度 640m
気温29℃
湿度70%
気圧1017hPa
METARTQPF 042000Z 08011KT 9999 FEW021 29/23 Q1017
過去の天気等 Google飛行場航空写真 Wunderground天気予報

過去48時間のMETAR

飛行場予報(TAF)
発表時間: 8/04 14:00 AST (8/04 18:00 UTC)
予報対象時間: 4日14時 AST ~ 5日14時 AST
風向・風速東 7m/s
視程10km以上
全天の4割程度の雲 雲底高度 550m
4日14時 AST ~ 5日8時 AST に 確率 30% で一時的に
天気現象しゅう雨
TAF TQPF 041800Z 0418/0518 10014KT 9999 SCT018
PROB30 TEMPO 0418/0512 SHRA